sensor_id;sensor_type;location;lat;lon;timestamp;pressure;altitude;pressure_sealevel;temperature;humidity
13434;BME280;6789;47.678;9.158;2023-09-08T00:04:15;97018.41;;;19.48;100.00
13434;BME280;6789;47.678;9.158;2023-09-08T00:09:07;97018.19;;;19.35;100.00
13434;BME280;6789;47.678;9.158;2023-09-08T00:13:59;97021.13;;;19.28;100.00
13434;BME280;6789;47.678;9.158;2023-09-08T00:18:51;97012.34;;;19.33;100.00
13434;BME280;6789;47.678;9.158;2023-09-08T00:23:43;97015.25;;;19.41;100.00
13434;BME280;6789;47.678;9.158;2023-09-08T00:28:34;97010.19;;;19.39;100.00
13434;BME280;6789;47.678;9.158;2023-09-08T00:33:27;97005.19;;;19.28;100.00
13434;BME280;6789;47.678;9.158;2023-09-08T00:38:19;97009.44;;;19.29;100.00
13434;BME280;6789;47.678;9.158;2023-09-08T00:43:11;97005.13;;;19.38;100.00
13434;BME280;6789;47.678;9.158;2023-09-08T00:48:03;96999.78;;;19.48;100.00
13434;BME280;6789;47.678;9.158;2023-09-08T00:52:55;97002.97;;;19.50;100.00
13434;BME280;6789;47.678;9.158;2023-09-08T00:57:47;97002.97;;;19.45;100.00
13434;BME280;6789;47.678;9.158;2023-09-08T01:02:39;97007.19;;;19.51;100.00
13434;BME280;6789;47.678;9.158;2023-09-08T01:07:31;96999.06;;;19.33;100.00
13434;BME280;6789;47.678;9.158;2023-09-08T01:12:23;97001.25;;;19.11;100.00
13434;BME280;6789;47.678;9.158;2023-09-08T01:17:16;96998.06;;;18.99;100.00
13434;BME280;6789;47.678;9.158;2023-09-08T01:27:24;97002.50;;;19.28;100.00
13434;BME280;6789;47.678;9.158;2023-09-08T01:32:17;97001.44;;;19.34;100.00
13434;BME280;6789;47.678;9.158;2023-09-08T01:37:09;97004.94;;;19.20;100.00
13434;BME280;6789;47.678;9.158;2023-09-08T01:42:02;96992.72;;;18.99;100.00
13434;BME280;6789;47.678;9.158;2023-09-08T01:46:54;97006.59;;;18.81;100.00
13434;BME280;6789;47.678;9.158;2023-09-08T01:51:48;96995.75;;;18.67;100.00
13434;BME280;6789;47.678;9.158;2023-09-08T01:56:40;97004.25;;;18.50;100.00
13434;BME280;6789;47.678;9.158;2023-09-08T02:01:32;96992.84;;;18.44;100.00
13434;BME280;6789;47.678;9.158;2023-09-08T02:06:23;96997.34;;;18.39;100.00
13434;BME280;6789;47.678;9.158;2023-09-08T02:11:15;96985.41;;;18.41;100.00
13434;BME280;6789;47.678;9.158;2023-09-08T02:16:07;96990.44;;;18.48;100.00
13434;BME280;6789;47.678;9.158;2023-09-08T02:20:59;96989.41;;;18.44;100.00
13434;BME280;6789;47.678;9.158;2023-09-08T02:25:51;96993.63;;;18.35;100.00
13434;BME280;6789;47.678;9.158;2023-09-08T02:30:43;96983.25;;;18.23;100.00
13434;BME280;6789;47.678;9.158;2023-09-08T02:35:37;96985.09;;;18.18;100.00
13434;BME280;6789;47.678;9.158;2023-09-08T02:40:30;96993.59;;;18.15;100.00
13434;BME280;6789;47.678;9.158;2023-09-08T02:45:22;96989.59;;;18.17;100.00
13434;BME280;6789;47.678;9.158;2023-09-08T02:50:14;97000.53;;;18.46;100.00
13434;BME280;6789;47.678;9.158;2023-09-08T02:55:06;97004.81;;;18.32;100.00
13434;BME280;6789;47.678;9.158;2023-09-08T02:59:58;97004.00;;;18.21;100.00
13434;BME280;6789;47.678;9.158;2023-09-08T03:04:50;96993.09;;;18.23;100.00
13434;BME280;6789;47.678;9.158;2023-09-08T03:09:42;96997.88;;;18.21;100.00
13434;BME280;6789;47.678;9.158;2023-09-08T03:14:34;96998.91;;;18.15;100.00
13434;BME280;6789;47.678;9.158;2023-09-08T03:19:26;96998.34;;;18.03;100.00
13434;BME280;6789;47.678;9.158;2023-09-08T03:24:18;97001.78;;;17.98;100.00
13434;BME280;6789;47.678;9.158;2023-09-08T03:29:09;97009.25;;;17.91;100.00
13434;BME280;6789;47.678;9.158;2023-09-08T03:34:01;97008.41;;;17.81;100.00
13434;BME280;6789;47.678;9.158;2023-09-08T03:38:53;97007.31;;;17.72;100.00
13434;BME280;6789;47.678;9.158;2023-09-08T03:43:45;96996.16;;;17.65;100.00
13434;BME280;6789;47.678;9.158;2023-09-08T03:48:37;96986.09;;;17.72;100.00
13434;BME280;6789;47.678;9.158;2023-09-08T03:53:28;96989.81;;;17.66;100.00
13434;BME280;6789;47.678;9.158;2023-09-08T03:58:20;96989.00;;;17.61;100.00
13434;BME280;6789;47.678;9.158;2023-09-08T04:03:12;97004.94;;;17.71;100.00
13434;BME280;6789;47.678;9.158;2023-09-08T04:08:04;97004.72;;;17.92;100.00
13434;BME280;6789;47.678;9.158;2023-09-08T04:12:56;97006.31;;;18.08;100.00
13434;BME280;6789;47.678;9.158;2023-09-08T04:17:48;96999.47;;;18.27;100.00
13434;BME280;6789;47.678;9.158;2023-09-08T04:22:40;97014.34;;;18.23;100.00
13434;BME280;6789;47.678;9.158;2023-09-08T04:27:32;97019.13;;;18.31;100.00
13434;BME280;6789;47.678;9.158;2023-09-08T04:32:24;97011.69;;;18.28;100.00
13434;BME280;6789;47.678;9.158;2023-09-08T04:37:24;97007.66;;;18.00;100.00
13434;BME280;6789;47.678;9.158;2023-09-08T04:42:16;97016.38;;;17.81;100.00
13434;BME280;6789;47.678;9.158;2023-09-08T04:47:08;97019.06;;;17.96;100.00
13434;BME280;6789;47.678;9.158;2023-09-08T04:52:00;97020.19;;;18.20;100.00
13434;BME280;6789;47.678;9.158;2023-09-08T04:56:51;97019.13;;;18.26;100.00
13434;BME280;6789;47.678;9.158;2023-09-08T05:01:46;97030.81;;;18.20;100.00
13434;BME280;6789;47.678;9.158;2023-09-08T05:06:37;97031.81;;;18.14;100.00
13434;BME280;6789;47.678;9.158;2023-09-08T05:11:29;97037.19;;;18.39;100.00
13434;BME280;6789;47.678;9.158;2023-09-08T05:16:21;97032.38;;;18.70;100.00
13434;BME280;6789;47.678;9.158;2023-09-08T05:21:28;97032.91;;;18.82;100.00
13434;BME280;6789;47.678;9.158;2023-09-08T05:26:20;97039.53;;;19.15;100.00
13434;BME280;6789;47.678;9.158;2023-09-08T05:31:11;97041.84;;;19.41;98.54
13434;BME280;6789;47.678;9.158;2023-09-08T05:36:03;97042.56;;;20.14;94.52
13434;BME280;6789;47.678;9.158;2023-09-08T05:40:56;97035.97;;;20.74;90.09
13434;BME280;6789;47.678;9.158;2023-09-08T05:45:48;97041.13;;;21.22;87.78
13434;BME280;6789;47.678;9.158;2023-09-08T05:50:39;97052.16;;;21.39;85.42
13434;BME280;6789;47.678;9.158;2023-09-08T05:55:31;97050.97;;;21.73;83.98
13434;BME280;6789;47.678;9.158;2023-09-08T06:00:23;97054.69;;;21.95;82.63
13434;BME280;6789;47.678;9.158;2023-09-08T06:05:14;97053.69;;;22.46;80.43
13434;BME280;6789;47.678;9.158;2023-09-08T06:10:07;97052.44;;;22.89;78.78
13434;BME280;6789;47.678;9.158;2023-09-08T06:14:58;97059.19;;;23.18;76.64
13434;BME280;6789;47.678;9.158;2023-09-08T06:19:50;97052.19;;;23.36;76.12
13434;BME280;6789;47.678;9.158;2023-09-08T06:24:42;97061.50;;;23.38;75.59
13434;BME280;6789;47.678;9.158;2023-09-08T06:29:34;97055.84;;;23.40;75.81
13434;BME280;6789;47.678;9.158;2023-09-08T06:34:26;97054.34;;;23.34;76.34
13434;BME280;6789;47.678;9.158;2023-09-08T06:39:17;97053.06;;;23.31;76.61
13434;BME280;6789;47.678;9.158;2023-09-08T06:44:09;97055.75;;;23.31;76.32
13434;BME280;6789;47.678;9.158;2023-09-08T06:49:01;97062.47;;;23.15;77.92
13434;BME280;6789;47.678;9.158;2023-09-08T06:53:57;97063.63;;;22.78;80.90
13434;BME280;6789;47.678;9.158;2023-09-08T06:58:48;97061.28;;;22.90;79.74
13434;BME280;6789;47.678;9.158;2023-09-08T07:03:40;97064.66;;;22.95;80.12
13434;BME280;6789;47.678;9.158;2023-09-08T07:08:32;97062.38;;;22.89;81.52
13434;BME280;6789;47.678;9.158;2023-09-08T07:13:25;97056.59;;;23.13;79.97
13434;BME280;6789;47.678;9.158;2023-09-08T07:18:16;97056.91;;;23.25;78.43
13434;BME280;6789;47.678;9.158;2023-09-08T07:23:08;97057.13;;;23.29;78.41
13434;BME280;6789;47.678;9.158;2023-09-08T07:28:00;97059.69;;;23.47;78.16
13434;BME280;6789;47.678;9.158;2023-09-08T07:32:52;97056.34;;;23.55;77.68
13434;BME280;6789;47.678;9.158;2023-09-08T07:37:44;97057.31;;;23.46;78.29
13434;BME280;6789;47.678;9.158;2023-09-08T07:42:36;97052.56;;;23.70;76.08
13434;BME280;6789;47.678;9.158;2023-09-08T07:47:27;97054.34;;;23.87;76.58
13434;BME280;6789;47.678;9.158;2023-09-08T07:52:22;97071.03;;;23.58;78.38
13434;BME280;6789;47.678;9.158;2023-09-08T07:57:14;97062.81;;;23.81;77.04
13434;BME280;6789;47.678;9.158;2023-09-08T08:02:06;97057.69;;;24.06;75.83
13434;BME280;6789;47.678;9.158;2023-09-08T08:06:58;97058.44;;;24.47;72.59
13434;BME280;6789;47.678;9.158;2023-09-08T08:11:49;97054.59;;;24.61;72.21
13434;BME280;6789;47.678;9.158;2023-09-08T08:16:42;97062.75;;;24.78;71.62
13434;BME280;6789;47.678;9.158;2023-09-08T08:21:34;97062.03;;;24.86;71.00
13434;BME280;6789;47.678;9.158;2023-09-08T08:26:25;97054.03;;;24.95;71.26
13434;BME280;6789;47.678;9.158;2023-09-08T08:31:20;97062.53;;;24.88;70.57
13434;BME280;6789;47.678;9.158;2023-09-08T08:36:11;97060.31;;;24.68;71.04
13434;BME280;6789;47.678;9.158;2023-09-08T08:41:04;97066.44;;;24.82;70.84
13434;BME280;6789;47.678;9.158;2023-09-08T08:45:58;97055.97;;;25.03;70.27
13434;BME280;6789;47.678;9.158;2023-09-08T08:50:52;97051.59;;;25.37;68.75
13434;BME280;6789;47.678;9.158;2023-09-08T08:55:45;97048.06;;;25.58;67.76
13434;BME280;6789;47.678;9.158;2023-09-08T09:00:38;97036.84;;;25.65;67.44
13434;BME280;6789;47.678;9.158;2023-09-08T09:05:31;97038.44;;;25.66;67.68
13434;BME280;6789;47.678;9.158;2023-09-08T09:10:23;97040.72;;;25.81;66.92
13434;BME280;6789;47.678;9.158;2023-09-08T09:15:16;97040.41;;;25.91;66.41
13434;BME280;6789;47.678;9.158;2023-09-08T09:20:17;97038.88;;;26.06;65.86
13434;BME280;6789;47.678;9.158;2023-09-08T09:30:13;97040.81;;;26.31;64.87
13434;BME280;6789;47.678;9.158;2023-09-08T09:35:06;97031.81;;;26.53;64.02
13434;BME280;6789;47.678;9.158;2023-09-08T09:40:00;97034.00;;;26.67;62.68
13434;BME280;6789;47.678;9.158;2023-09-08T09:44:52;97025.94;;;26.34;62.94
13434;BME280;6789;47.678;9.158;2023-09-08T09:49:48;97027.38;;;26.48;63.14
13434;BME280;6789;47.678;9.158;2023-09-08T09:54:43;97025.13;;;26.75;62.78
13434;BME280;6789;47.678;9.158;2023-09-08T09:59:35;97024.94;;;26.80;62.08
13434;BME280;6789;47.678;9.158;2023-09-08T10:04:28;97023.22;;;26.84;62.19
13434;BME280;6789;47.678;9.158;2023-09-08T10:09:20;97021.44;;;27.05;62.25
13434;BME280;6789;47.678;9.158;2023-09-08T10:14:15;97022.03;;;27.19;61.55
13434;BME280;6789;47.678;9.158;2023-09-08T10:19:11;97011.22;;;27.28;62.08
13434;BME280;6789;47.678;9.158;2023-09-08T10:24:22;97001.31;;;27.48;62.05
13434;BME280;6789;47.678;9.158;2023-09-08T10:29:18;96999.66;;;27.64;61.99
13434;BME280;6789;47.678;9.158;2023-09-08T10:34:22;96995.94;;;27.77;62.04
13434;BME280;6789;47.678;9.158;2023-09-08T10:39:31;97008.38;;;27.70;61.36
13434;BME280;6789;47.678;9.158;2023-09-08T10:44:24;96995.22;;;27.68;61.08
13434;BME280;6789;47.678;9.158;2023-09-08T10:49:38;96992.34;;;27.73;60.47
13434;BME280;6789;47.678;9.158;2023-09-08T10:54:49;96980.25;;;27.79;62.10
13434;BME280;6789;47.678;9.158;2023-09-08T10:59:51;96980.38;;;27.83;61.84
13434;BME280;6789;47.678;9.158;2023-09-08T11:04:44;96973.91;;;27.75;61.25
13434;BME280;6789;47.678;9.158;2023-09-08T11:09:37;96963.72;;;27.81;61.52
13434;BME280;6789;47.678;9.158;2023-09-08T11:14:46;96965.56;;;27.68;61.25
13434;BME280;6789;47.678;9.158;2023-09-08T11:19:53;96969.66;;;27.74;61.87
13434;BME280;6789;47.678;9.158;2023-09-08T11:25:01;96968.41;;;27.35;62.87
13434;BME280;6789;47.678;9.158;2023-09-08T11:30:13;96968.69;;;27.42;63.13
13434;BME280;6789;47.678;9.158;2023-09-08T11:35:08;96957.81;;;27.58;62.57
13434;BME280;6789;47.678;9.158;2023-09-08T11:40:09;96956.66;;;27.68;63.17
13434;BME280;6789;47.678;9.158;2023-09-08T11:45:08;96961.09;;;27.72;62.79
13434;BME280;6789;47.678;9.158;2023-09-08T11:50:14;96950.94;;;27.41;63.68
13434;BME280;6789;47.678;9.158;2023-09-08T11:55:14;96950.88;;;27.49;63.83
13434;BME280;6789;47.678;9.158;2023-09-08T12:00:09;96947.84;;;27.59;63.65
13434;BME280;6789;47.678;9.158;2023-09-08T12:05:04;96937.63;;;27.93;63.42
13434;BME280;6789;47.678;9.158;2023-09-08T12:09:58;96926.97;;;28.17;61.67
13434;BME280;6789;47.678;9.158;2023-09-08T12:14:52;96932.78;;;28.27;60.71
13434;BME280;6789;47.678;9.158;2023-09-08T12:19:43;96923.50;;;28.49;60.92
13434;BME280;6789;47.678;9.158;2023-09-08T12:30:03;96920.34;;;28.79;57.83
13434;BME280;6789;47.678;9.158;2023-09-08T12:34:55;96914.63;;;28.60;58.76
13434;BME280;6789;47.678;9.158;2023-09-08T12:39:47;96920.16;;;28.64;59.45
13434;BME280;6789;47.678;9.158;2023-09-08T12:44:42;96914.84;;;28.88;58.10
13434;BME280;6789;47.678;9.158;2023-09-08T12:49:34;96905.84;;;28.95;58.32
13434;BME280;6789;47.678;9.158;2023-09-08T12:54:30;96904.97;;;29.03;57.54
13434;BME280;6789;47.678;9.158;2023-09-08T12:59:23;96893.69;;;29.01;57.67
13434;BME280;6789;47.678;9.158;2023-09-08T13:04:16;96894.94;;;29.04;57.36
13434;BME280;6789;47.678;9.158;2023-09-08T13:09:08;96885.34;;;29.06;56.59
13434;BME280;6789;47.678;9.158;2023-09-08T13:14:00;96876.59;;;29.09;55.85
13434;BME280;6789;47.678;9.158;2023-09-08T13:18:52;96879.41;;;29.01;55.50
13434;BME280;6789;47.678;9.158;2023-09-08T13:23:44;96871.63;;;28.99;56.60
13434;BME280;6789;47.678;9.158;2023-09-08T13:28:50;96866.00;;;29.16;55.43
13434;BME280;6789;47.678;9.158;2023-09-08T13:33:42;96862.59;;;29.43;54.58
13434;BME280;6789;47.678;9.158;2023-09-08T13:38:33;96855.44;;;29.11;55.78
13434;BME280;6789;47.678;9.158;2023-09-08T13:43:26;96864.28;;;28.76;56.64
13434;BME280;6789;47.678;9.158;2023-09-08T13:53:23;96859.16;;;28.83;57.71
13434;BME280;6789;47.678;9.158;2023-09-08T13:58:44;96853.63;;;28.92;56.22
13434;BME280;6789;47.678;9.158;2023-09-08T14:03:48;96862.16;;;28.93;57.83
13434;BME280;6789;47.678;9.158;2023-09-08T14:08:57;96857.63;;;28.74;56.47
13434;BME280;6789;47.678;9.158;2023-09-08T14:13:51;96858.16;;;28.55;56.67
13434;BME280;6789;47.678;9.158;2023-09-08T14:18:44;96848.13;;;28.56;57.38
13434;BME280;6789;47.678;9.158;2023-09-08T14:23:35;96850.97;;;28.71;56.43
13434;BME280;6789;47.678;9.158;2023-09-08T14:28:29;96847.31;;;28.88;56.38
13434;BME280;6789;47.678;9.158;2023-09-08T14:33:23;96845.06;;;28.78;55.36
13434;BME280;6789;47.678;9.158;2023-09-08T14:38:15;96845.91;;;28.70;56.57
13434;BME280;6789;47.678;9.158;2023-09-08T14:43:08;96847.72;;;28.66;55.92
13434;BME280;6789;47.678;9.158;2023-09-08T14:48:00;96842.00;;;28.79;56.73
13434;BME280;6789;47.678;9.158;2023-09-08T14:52:52;96851.66;;;28.68;56.71
13434;BME280;6789;47.678;9.158;2023-09-08T14:57:44;96838.81;;;28.65;56.98
13434;BME280;6789;47.678;9.158;2023-09-08T15:02:38;96832.91;;;28.84;55.76
13434;BME280;6789;47.678;9.158;2023-09-08T15:07:45;96834.72;;;28.92;55.95
13434;BME280;6789;47.678;9.158;2023-09-08T15:12:37;96837.97;;;28.97;54.91
13434;BME280;6789;47.678;9.158;2023-09-08T15:17:29;96838.31;;;28.95;54.84
13434;BME280;6789;47.678;9.158;2023-09-08T15:22:21;96830.91;;;28.92;54.68
13434;BME280;6789;47.678;9.158;2023-09-08T15:27:13;96821.31;;;28.95;53.84
13434;BME280;6789;47.678;9.158;2023-09-08T15:32:05;96823.44;;;28.90;55.27
13434;BME280;6789;47.678;9.158;2023-09-08T15:36:57;96830.97;;;28.96;54.43
13434;BME280;6789;47.678;9.158;2023-09-08T15:41:49;96826.03;;;28.98;54.21
13434;BME280;6789;47.678;9.158;2023-09-08T15:46:41;96820.63;;;28.98;53.92
13434;BME280;6789;47.678;9.158;2023-09-08T15:51:33;96805.66;;;29.00;53.15
13434;BME280;6789;47.678;9.158;2023-09-08T15:56:25;96813.75;;;29.00;52.97
13434;BME280;6789;47.678;9.158;2023-09-08T16:01:22;96809.59;;;29.03;54.36
13434;BME280;6789;47.678;9.158;2023-09-08T16:06:29;96810.28;;;29.00;55.35
13434;BME280;6789;47.678;9.158;2023-09-08T16:11:35;96812.19;;;28.88;54.92
13434;BME280;6789;47.678;9.158;2023-09-08T16:16:29;96806.56;;;28.81;55.07
13434;BME280;6789;47.678;9.158;2023-09-08T16:21:31;96818.69;;;28.75;54.83
13434;BME280;6789;47.678;9.158;2023-09-08T16:26:40;96819.25;;;28.68;54.14
13434;BME280;6789;47.678;9.158;2023-09-08T16:31:33;96825.00;;;28.55;55.45
13434;BME280;6789;47.678;9.158;2023-09-08T16:36:25;96825.41;;;28.45;56.32
13434;BME280;6789;47.678;9.158;2023-09-08T16:41:17;96819.63;;;28.34;56.77
13434;BME280;6789;47.678;9.158;2023-09-08T16:46:09;96821.53;;;28.22;57.21
13434;BME280;6789;47.678;9.158;2023-09-08T16:51:01;96816.84;;;28.11;58.18
13434;BME280;6789;47.678;9.158;2023-09-08T16:55:52;96823.38;;;27.77;59.36
13434;BME280;6789;47.678;9.158;2023-09-08T17:00:44;96819.03;;;27.64;60.57
13434;BME280;6789;47.678;9.158;2023-09-08T17:05:37;96820.16;;;27.63;60.57
13434;BME280;6789;47.678;9.158;2023-09-08T17:10:34;96811.72;;;27.44;61.10
13434;BME280;6789;47.678;9.158;2023-09-08T17:15:27;96815.00;;;27.30;61.79
13434;BME280;6789;47.678;9.158;2023-09-08T17:20:18;96827.28;;;27.19;62.56
13434;BME280;6789;47.678;9.158;2023-09-08T17:25:11;96818.97;;;26.95;63.05
13434;BME280;6789;47.678;9.158;2023-09-08T17:30:17;96816.72;;;26.76;64.38
13434;BME280;6789;47.678;9.158;2023-09-08T17:35:26;96824.56;;;26.61;65.56
13434;BME280;6789;47.678;9.158;2023-09-08T17:40:28;96826.19;;;26.45;66.63
13434;BME280;6789;47.678;9.158;2023-09-08T17:45:20;96824.63;;;26.27;68.23
13434;BME280;6789;47.678;9.158;2023-09-08T17:50:15;96832.75;;;26.10;69.66
13434;BME280;6789;47.678;9.158;2023-09-08T17:55:07;96831.53;;;25.91;72.38
13434;BME280;6789;47.678;9.158;2023-09-08T17:59:59;96832.91;;;25.63;74.17
13434;BME280;6789;47.678;9.158;2023-09-08T18:04:51;96833.53;;;25.35;76.86
13434;BME280;6789;47.678;9.158;2023-09-08T18:09:43;96839.66;;;25.10;78.43
13434;BME280;6789;47.678;9.158;2023-09-08T18:14:35;96843.84;;;24.86;80.64
13434;BME280;6789;47.678;9.158;2023-09-08T18:19:27;96846.78;;;24.67;82.34
13434;BME280;6789;47.678;9.158;2023-09-08T18:24:19;96843.88;;;24.55;83.67
13434;BME280;6789;47.678;9.158;2023-09-08T18:29:10;96853.41;;;24.40;84.78
13434;BME280;6789;47.678;9.158;2023-09-08T18:34:02;96851.88;;;24.25;86.39
13434;BME280;6789;47.678;9.158;2023-09-08T18:38:54;96860.19;;;24.15;87.02
13434;BME280;6789;47.678;9.158;2023-09-08T18:43:49;96859.78;;;24.00;87.92
13434;BME280;6789;47.678;9.158;2023-09-08T18:48:55;96860.31;;;23.88;87.84
13434;BME280;6789;47.678;9.158;2023-09-08T18:53:47;96869.13;;;23.80;87.99
13434;BME280;6789;47.678;9.158;2023-09-08T18:58:39;96864.66;;;23.76;89.48
13434;BME280;6789;47.678;9.158;2023-09-08T19:03:35;96871.41;;;23.74;89.41
13434;BME280;6789;47.678;9.158;2023-09-08T19:08:30;96873.00;;;23.61;90.23
13434;BME280;6789;47.678;9.158;2023-09-08T19:13:23;96873.25;;;23.51;90.81
13434;BME280;6789;47.678;9.158;2023-09-08T19:18:15;96879.44;;;23.38;91.38
13434;BME280;6789;47.678;9.158;2023-09-08T19:23:11;96885.59;;;23.25;92.37
13434;BME280;6789;47.678;9.158;2023-09-08T19:28:04;96886.09;;;23.14;93.07
13434;BME280;6789;47.678;9.158;2023-09-08T19:32:56;96885.22;;;23.05;93.33
13434;BME280;6789;47.678;9.158;2023-09-08T19:37:50;96888.16;;;22.90;94.49
13434;BME280;6789;47.678;9.158;2023-09-08T19:42:42;96884.41;;;22.78;95.34
13434;BME280;6789;47.678;9.158;2023-09-08T19:47:34;96888.28;;;22.72;95.95
13434;BME280;6789;47.678;9.158;2023-09-08T19:52:26;96893.78;;;22.62;96.60
13434;BME280;6789;47.678;9.158;2023-09-08T19:57:19;96894.50;;;22.54;96.30
13434;BME280;6789;47.678;9.158;2023-09-08T20:02:11;96889.31;;;22.44;96.19
13434;BME280;6789;47.678;9.158;2023-09-08T20:07:03;96889.72;;;22.37;96.23
13434;BME280;6789;47.678;9.158;2023-09-08T20:12:02;96893.06;;;22.29;97.76
13434;BME280;6789;47.678;9.158;2023-09-08T20:17:00;96891.22;;;22.25;98.47
13434;BME280;6789;47.678;9.158;2023-09-08T20:21:51;96892.69;;;22.18;98.52
13434;BME280;6789;47.678;9.158;2023-09-08T20:26:43;96895.25;;;22.09;99.12
13434;BME280;6789;47.678;9.158;2023-09-08T20:31:49;96900.75;;;21.99;100.00
13434;BME280;6789;47.678;9.158;2023-09-08T20:36:43;96891.50;;;21.92;100.00
13434;BME280;6789;47.678;9.158;2023-09-08T20:41:34;96891.38;;;21.83;100.00
13434;BME280;6789;47.678;9.158;2023-09-08T20:46:26;96898.19;;;21.76;100.00
13434;BME280;6789;47.678;9.158;2023-09-08T20:51:19;96890.22;;;21.71;100.00
13434;BME280;6789;47.678;9.158;2023-09-08T20:56:53;96898.91;;;21.63;100.00
13434;BME280;6789;47.678;9.158;2023-09-08T21:01:47;96905.13;;;21.58;100.00
13434;BME280;6789;47.678;9.158;2023-09-08T21:06:39;96902.53;;;21.54;100.00
13434;BME280;6789;47.678;9.158;2023-09-08T21:11:31;96903.91;;;21.46;100.00
13434;BME280;6789;47.678;9.158;2023-09-08T21:16:23;96907.47;;;21.42;100.00
13434;BME280;6789;47.678;9.158;2023-09-08T21:21:29;96903.28;;;21.36;100.00
13434;BME280;6789;47.678;9.158;2023-09-08T21:26:29;96898.78;;;21.31;100.00
13434;BME280;6789;47.678;9.158;2023-09-08T21:32:10;96905.00;;;21.27;100.00
13434;BME280;6789;47.678;9.158;2023-09-08T21:37:05;96914.38;;;21.24;100.00
13434;BME280;6789;47.678;9.158;2023-09-08T21:42:02;96908.28;;;21.19;100.00
13434;BME280;6789;47.678;9.158;2023-09-08T21:46:56;96910.25;;;21.13;100.00
13434;BME280;6789;47.678;9.158;2023-09-08T21:52:05;96910.03;;;21.10;100.00
13434;BME280;6789;47.678;9.158;2023-09-08T21:56:57;96903.66;;;21.06;100.00
13434;BME280;6789;47.678;9.158;2023-09-08T22:01:49;96902.13;;;21.00;100.00
13434;BME280;6789;47.678;9.158;2023-09-08T22:06:55;96906.50;;;20.91;100.00
13434;BME280;6789;47.678;9.158;2023-09-08T22:11:50;96904.91;;;20.90;100.00
13434;BME280;6789;47.678;9.158;2023-09-08T22:16:43;96906.38;;;20.78;100.00
13434;BME280;6789;47.678;9.158;2023-09-08T22:21:36;96890.69;;;20.71;100.00
13434;BME280;6789;47.678;9.158;2023-09-08T22:26:28;96896.88;;;20.67;100.00
13434;BME280;6789;47.678;9.158;2023-09-08T22:31:20;96898.75;;;20.66;100.00
13434;BME280;6789;47.678;9.158;2023-09-08T22:36:12;96892.75;;;20.56;100.00
13434;BME280;6789;47.678;9.158;2023-09-08T22:41:18;96885.09;;;20.49;100.00
13434;BME280;6789;47.678;9.158;2023-09-08T22:46:11;96890.19;;;20.46;100.00
13434;BME280;6789;47.678;9.158;2023-09-08T22:51:03;96884.09;;;20.40;100.00
13434;BME280;6789;47.678;9.158;2023-09-08T22:55:55;96893.50;;;20.33;100.00
13434;BME280;6789;47.678;9.158;2023-09-08T23:00:47;96897.00;;;20.28;100.00
13434;BME280;6789;47.678;9.158;2023-09-08T23:05:39;96894.41;;;20.23;100.00
13434;BME280;6789;47.678;9.158;2023-09-08T23:10:31;96898.13;;;20.22;100.00
13434;BME280;6789;47.678;9.158;2023-09-08T23:15:23;96895.22;;;20.19;100.00
13434;BME280;6789;47.678;9.158;2023-09-08T23:20:16;96888.59;;;20.16;100.00
13434;BME280;6789;47.678;9.158;2023-09-08T23:25:22;96901.97;;;20.11;100.00
13434;BME280;6789;47.678;9.158;2023-09-08T23:30:29;96895.09;;;20.06;100.00
13434;BME280;6789;47.678;9.158;2023-09-08T23:35:22;96899.38;;;20.02;100.00
13434;BME280;6789;47.678;9.158;2023-09-08T23:40:14;96894.38;;;19.95;100.00
13434;BME280;6789;47.678;9.158;2023-09-08T23:45:06;96896.53;;;19.88;100.00
13434;BME280;6789;47.678;9.158;2023-09-08T23:50:13;96899.72;;;19.85;100.00
13434;BME280;6789;47.678;9.158;2023-09-08T23:55:06;96898.16;;;19.84;100.00
13434;BME280;6789;47.678;9.158;2023-09-08T23:59:58;96892.03;;;19.84;100.00
